sensor_id;sensor_type;location;lat;lon;timestamp;pressure;altitude;pressure_sealevel;temperature;humidity
43745;BME280;29359;53.048;8.732;2022-12-07T00:01:22;101472.97;;;3.80;100.00
43745;BME280;29359;53.048;8.732;2022-12-07T00:03:24;101474.69;;;3.78;100.00
43745;BME280;29359;53.048;8.732;2022-12-07T00:05:25;101478.13;;;3.74;100.00
43745;BME280;29359;53.048;8.732;2022-12-07T00:07:27;101475.50;;;3.72;100.00
43745;BME280;29359;53.048;8.732;2022-12-07T00:09:28;101472.91;;;3.74;100.00
43745;BME280;29359;53.048;8.732;2022-12-07T00:11:30;101476.38;;;3.73;100.00
43745;BME280;29359;53.048;8.732;2022-12-07T00:13:33;101478.97;;;3.71;100.00
43745;BME280;29359;53.048;8.732;2022-12-07T00:15:35;101474.59;;;3.67;100.00
43745;BME280;29359;53.048;8.732;2022-12-07T00:17:36;101480.69;;;3.68;100.00
43745;BME280;29359;53.048;8.732;2022-12-07T00:19:38;101470.22;;;3.66;100.00
43745;BME280;29359;53.048;8.732;2022-12-07T00:21:40;101471.97;;;3.67;100.00
43745;BME280;29359;53.048;8.732;2022-12-07T00:23:43;101469.34;;;3.66;100.00
43745;BME280;29359;53.048;8.732;2022-12-07T00:25:45;101478.03;;;3.63;100.00
43745;BME280;29359;53.048;8.732;2022-12-07T00:27:46;101467.56;;;3.62;100.00
43745;BME280;29359;53.048;8.732;2022-12-07T00:29:47;101471.91;;;3.60;100.00
43745;BME280;29359;53.048;8.732;2022-12-07T00:31:49;101464.91;;;3.57;100.00
43745;BME280;29359;53.048;8.732;2022-12-07T00:33:51;101470.97;;;3.55;100.00
43745;BME280;29359;53.048;8.732;2022-12-07T00:35:56;101465.75;;;3.55;100.00
43745;BME280;29359;53.048;8.732;2022-12-07T00:37:58;101468.38;;;3.56;100.00
43745;BME280;29359;53.048;8.732;2022-12-07T00:39:59;101470.09;;;3.54;100.00
43745;BME280;29359;53.048;8.732;2022-12-07T00:42:02;101473.59;;;3.55;100.00
43745;BME280;29359;53.048;8.732;2022-12-07T00:44:03;101480.59;;;3.57;100.00
43745;BME280;29359;53.048;8.732;2022-12-07T00:46:05;101471.88;;;3.58;100.00
43745;BME280;29359;53.048;8.732;2022-12-07T00:48:06;101469.31;;;3.61;100.00
43745;BME280;29359;53.048;8.732;2022-12-07T00:50:08;101476.28;;;3.62;100.00
43745;BME280;29359;53.048;8.732;2022-12-07T00:52:10;101472.81;;;3.63;100.00
43745;BME280;29359;53.048;8.732;2022-12-07T00:54:11;101473.69;;;3.65;100.00
43745;BME280;29359;53.048;8.732;2022-12-07T00:56:15;101472.00;;;3.69;100.00
43745;BME280;29359;53.048;8.732;2022-12-07T00:58:17;101468.53;;;3.70;100.00
43745;BME280;29359;53.048;8.732;2022-12-07T01:00:18;101463.28;;;3.68;100.00
43745;BME280;29359;53.048;8.732;2022-12-07T01:02:20;101465.91;;;3.68;100.00
43745;BME280;29359;53.048;8.732;2022-12-07T01:04:22;101453.72;;;3.69;100.00
43745;BME280;29359;53.048;8.732;2022-12-07T01:06:25;101462.41;;;3.68;100.00
43745;BME280;29359;53.048;8.732;2022-12-07T01:08:27;101461.53;;;3.67;100.00
43745;BME280;29359;53.048;8.732;2022-12-07T01:10:29;101459.78;;;3.66;100.00
43745;BME280;29359;53.048;8.732;2022-12-07T01:12:32;101464.13;;;3.66;100.00
43745;BME280;29359;53.048;8.732;2022-12-07T01:14:34;101462.38;;;3.63;100.00
43745;BME280;29359;53.048;8.732;2022-12-07T01:16:43;101464.09;;;3.61;100.00
43745;BME280;29359;53.048;8.732;2022-12-07T01:18:49;101460.56;;;3.58;100.00
43745;BME280;29359;53.048;8.732;2022-12-07T01:21:06;101463.16;;;3.56;100.00
43745;BME280;29359;53.048;8.732;2022-12-07T01:23:08;101464.00;;;3.54;100.00
43745;BME280;29359;53.048;8.732;2022-12-07T01:25:10;101465.75;;;3.55;100.00
43745;BME280;29359;53.048;8.732;2022-12-07T01:27:13;101467.47;;;3.53;100.00
43745;BME280;29359;53.048;8.732;2022-12-07T01:29:14;101466.63;;;3.54;100.00
43745;BME280;29359;53.048;8.732;2022-12-07T01:31:19;101463.16;;;3.55;100.00
43745;BME280;29359;53.048;8.732;2022-12-07T01:33:21;101464.03;;;3.57;100.00
43745;BME280;29359;53.048;8.732;2022-12-07T01:35:22;101458.00;;;3.61;100.00
43745;BME280;29359;53.048;8.732;2022-12-07T01:37:24;101455.44;;;3.67;100.00
43745;BME280;29359;53.048;8.732;2022-12-07T01:39:25;101445.91;;;3.70;100.00
43745;BME280;29359;53.048;8.732;2022-12-07T01:41:31;101452.88;;;3.73;100.00
43745;BME280;29359;53.048;8.732;2022-12-07T01:43:34;101447.66;;;3.71;99.79
43745;BME280;29359;53.048;8.732;2022-12-07T01:45:41;101444.16;;;3.71;99.83
43745;BME280;29359;53.048;8.732;2022-12-07T01:47:48;101444.16;;;3.69;99.61
43745;BME280;29359;53.048;8.732;2022-12-07T01:49:51;101448.47;;;3.66;99.63
43745;BME280;29359;53.048;8.732;2022-12-07T01:52:01;101452.78;;;3.64;99.24
43745;BME280;29359;53.048;8.732;2022-12-07T01:54:03;101451.88;;;3.59;99.26
43745;BME280;29359;53.048;8.732;2022-12-07T01:56:05;101450.13;;;3.56;99.76
43745;BME280;29359;53.048;8.732;2022-12-07T01:58:09;101447.47;;;3.53;99.37
43745;BME280;29359;53.048;8.732;2022-12-07T02:00:12;101445.69;;;3.49;99.73
43745;BME280;29359;53.048;8.732;2022-12-07T02:02:33;101442.13;;;3.45;99.43
43745;BME280;29359;53.048;8.732;2022-12-07T02:04:35;101440.34;;;3.40;99.82
43745;BME280;29359;53.048;8.732;2022-12-07T02:06:37;101436.84;;;3.39;99.71
43745;BME280;29359;53.048;8.732;2022-12-07T02:08:40;101440.31;;;3.37;99.65
43745;BME280;29359;53.048;8.732;2022-12-07T02:10:42;101435.94;;;3.34;99.84
43745;BME280;29359;53.048;8.732;2022-12-07T02:12:44;101437.69;;;3.34;99.86
43745;BME280;29359;53.048;8.732;2022-12-07T02:14:48;101438.50;;;3.30;99.89
43745;BME280;29359;53.048;8.732;2022-12-07T02:24:03;101427.06;;;3.17;100.00
43745;BME280;29359;53.048;8.732;2022-12-07T02:30:48;101429.59;;;3.11;100.00
43745;BME280;29359;53.048;8.732;2022-12-07T02:33:02;101431.28;;;3.07;100.00
43745;BME280;29359;53.048;8.732;2022-12-07T02:35:12;101422.56;;;3.05;100.00
43745;BME280;29359;53.048;8.732;2022-12-07T02:37:35;101425.16;;;3.04;100.00
43745;BME280;29359;53.048;8.732;2022-12-07T02:39:59;101411.28;;;3.05;100.00
43745;BME280;29359;53.048;8.732;2022-12-07T02:42:09;101415.59;;;3.04;100.00
43745;BME280;29359;53.048;8.732;2022-12-07T02:44:18;101412.06;;;3.01;100.00
43745;BME280;29359;53.048;8.732;2022-12-07T02:46:25;101414.66;;;3.01;100.00
43745;BME280;29359;53.048;8.732;2022-12-07T02:48:30;101419.88;;;2.99;100.00
43745;BME280;29359;53.048;8.732;2022-12-07T02:50:33;101417.25;;;2.99;100.00
43745;BME280;29359;53.048;8.732;2022-12-07T02:52:34;101418.13;;;3.00;100.00
43745;BME280;29359;53.048;8.732;2022-12-07T02:54:36;101419.94;;;3.04;100.00
43745;BME280;29359;53.048;8.732;2022-12-07T03:03:16;101458.31;;;3.14;100.00
43745;BME280;29359;53.048;8.732;2022-12-07T03:10:26;101439.25;;;3.18;100.00
43745;BME280;29359;53.048;8.732;2022-12-07T03:12:32;101444.47;;;3.18;100.00
43745;BME280;29359;53.048;8.732;2022-12-07T03:14:52;101436.63;;;3.18;100.00
43745;BME280;29359;53.048;8.732;2022-12-07T03:19:07;101441.00;;;3.19;100.00
43745;BME280;29359;53.048;8.732;2022-12-07T03:21:14;101434.03;;;3.18;100.00
43745;BME280;29359;53.048;8.732;2022-12-07T03:23:18;101434.91;;;3.19;100.00
43745;BME280;29359;53.048;8.732;2022-12-07T03:25:21;101431.41;;;3.18;100.00
43745;BME280;29359;53.048;8.732;2022-12-07T03:27:25;101427.94;;;3.19;100.00
43745;BME280;29359;53.048;8.732;2022-12-07T03:29:34;101429.72;;;3.22;100.00
43745;BME280;29359;53.048;8.732;2022-12-07T03:31:41;101427.09;;;3.22;100.00
43745;BME280;29359;53.048;8.732;2022-12-07T03:34:03;101428.84;;;3.21;100.00
43745;BME280;29359;53.048;8.732;2022-12-07T03:36:17;101423.63;;;3.21;100.00
43745;BME280;29359;53.048;8.732;2022-12-07T03:38:25;101428.81;;;3.20;100.00
43745;BME280;29359;53.048;8.732;2022-12-07T03:40:34;101422.72;;;3.19;100.00
43745;BME280;29359;53.048;8.732;2022-12-07T03:42:36;101427.09;;;3.20;100.00
43745;BME280;29359;53.048;8.732;2022-12-07T03:44:39;101427.09;;;3.20;100.00
43745;BME280;29359;53.048;8.732;2022-12-07T03:49:51;101430.53;;;3.18;100.00
43745;BME280;29359;53.048;8.732;2022-12-07T03:52:03;101439.22;;;3.15;100.00
43745;BME280;29359;53.048;8.732;2022-12-07T03:54:18;101433.13;;;3.14;100.00
43745;BME280;29359;53.048;8.732;2022-12-07T03:56:21;101444.44;;;3.15;100.00
43745;BME280;29359;53.048;8.732;2022-12-07T03:58:24;101436.59;;;3.15;100.00
43745;BME280;29359;53.048;8.732;2022-12-07T04:00:26;101440.94;;;3.14;100.00
43745;BME280;29359;53.048;8.732;2022-12-07T04:02:28;101435.72;;;3.14;100.00
43745;BME280;29359;53.048;8.732;2022-12-07T04:04:30;101433.09;;;3.13;100.00
43745;BME280;29359;53.048;8.732;2022-12-07T04:06:32;101429.63;;;3.14;100.00
43745;BME280;29359;53.048;8.732;2022-12-07T04:08:33;101432.25;;;3.14;100.00
43745;BME280;29359;53.048;8.732;2022-12-07T04:10:35;101416.59;;;3.14;100.00
43745;BME280;29359;53.048;8.732;2022-12-07T04:12:37;101416.59;;;3.14;100.00
43745;BME280;29359;53.048;8.732;2022-12-07T04:14:38;101413.97;;;3.12;100.00
43745;BME280;29359;53.048;8.732;2022-12-07T04:16:39;101416.56;;;3.11;100.00
43745;BME280;29359;53.048;8.732;2022-12-07T04:18:45;101420.88;;;3.09;100.00
43745;BME280;29359;53.048;8.732;2022-12-07T04:20:46;101413.91;;;3.08;100.00
43745;BME280;29359;53.048;8.732;2022-12-07T04:22:48;101406.94;;;3.07;100.00
43745;BME280;29359;53.048;8.732;2022-12-07T04:24:49;101413.91;;;3.08;100.00
43745;BME280;29359;53.048;8.732;2022-12-07T04:26:51;101412.16;;;3.05;100.00
43745;BME280;29359;53.048;8.732;2022-12-07T04:28:52;101417.28;;;3.02;100.00
43745;BME280;29359;53.048;8.732;2022-12-07T04:30:54;101421.63;;;3.02;100.00
43745;BME280;29359;53.048;8.732;2022-12-07T04:32:55;101418.16;;;3.01;100.00
43745;BME280;29359;53.048;8.732;2022-12-07T04:34:57;101425.09;;;3.01;100.00
43745;BME280;29359;53.048;8.732;2022-12-07T04:36:58;101423.34;;;3.00;100.00
43745;BME280;29359;53.048;8.732;2022-12-07T04:39:00;101430.28;;;2.99;100.00
43745;BME280;29359;53.048;8.732;2022-12-07T04:41:06;101431.16;;;2.98;100.00
43745;BME280;29359;53.048;8.732;2022-12-07T04:43:07;101434.63;;;2.97;100.00
43745;BME280;29359;53.048;8.732;2022-12-07T04:45:09;101427.66;;;2.98;100.00
43745;BME280;29359;53.048;8.732;2022-12-07T04:47:11;101405.94;;;2.97;100.00
43745;BME280;29359;53.048;8.732;2022-12-07T04:49:13;101402.44;;;2.97;100.00
43745;BME280;29359;53.048;8.732;2022-12-07T04:51:21;101405.03;;;2.95;100.00
43745;BME280;29359;53.048;8.732;2022-12-07T04:53:23;101404.16;;;2.95;100.00
43745;BME280;29359;53.048;8.732;2022-12-07T04:55:25;101403.28;;;2.94;100.00
43745;BME280;29359;53.048;8.732;2022-12-07T04:57:26;101401.53;;;2.92;100.00
43745;BME280;29359;53.048;8.732;2022-12-07T04:59:28;101409.34;;;2.92;100.00
43745;BME280;29359;53.048;8.732;2022-12-07T05:01:29;101405.84;;;2.90;100.00
43745;BME280;29359;53.048;8.732;2022-12-07T05:03:31;101407.56;;;2.88;100.00
43745;BME280;29359;53.048;8.732;2022-12-07T05:05:33;101397.13;;;2.88;100.00
43745;BME280;29359;53.048;8.732;2022-12-07T05:07:34;101407.53;;;2.86;100.00
43745;BME280;29359;53.048;8.732;2022-12-07T05:09:36;101397.97;;;2.85;100.00
43745;BME280;29359;53.048;8.732;2022-12-07T05:11:37;101408.41;;;2.85;100.00
43745;BME280;29359;53.048;8.732;2022-12-07T05:13:42;101399.69;;;2.83;100.00
43745;BME280;29359;53.048;8.732;2022-12-07T05:15:43;101403.13;;;2.80;100.00
43745;BME280;29359;53.048;8.732;2022-12-07T05:17:45;101403.09;;;2.77;100.00
43745;BME280;29359;53.048;8.732;2022-12-07T05:19:46;101403.94;;;2.76;100.00
43745;BME280;29359;53.048;8.732;2022-12-07T05:21:48;101409.16;;;2.75;100.00
43745;BME280;29359;53.048;8.732;2022-12-07T05:23:49;101408.25;;;2.73;100.00
43745;BME280;29359;53.048;8.732;2022-12-07T05:25:51;101403.00;;;2.71;100.00
43745;BME280;29359;53.048;8.732;2022-12-07T05:27:54;101409.97;;;2.71;100.00
43745;BME280;29359;53.048;8.732;2022-12-07T05:29:56;101413.38;;;2.67;100.00
43745;BME280;29359;53.048;8.732;2022-12-07T05:31:57;101413.34;;;2.64;100.00
43745;BME280;29359;53.048;8.732;2022-12-07T05:33:59;101415.94;;;2.62;100.00
43745;BME280;29359;53.048;8.732;2022-12-07T05:36:01;101413.25;;;2.59;100.00
43745;BME280;29359;53.048;8.732;2022-12-07T05:38:06;101416.72;;;2.58;100.00
43745;BME280;29359;53.048;8.732;2022-12-07T05:40:08;101415.81;;;2.56;100.00
43745;BME280;29359;53.048;8.732;2022-12-07T05:42:10;101411.44;;;2.53;100.00
43745;BME280;29359;53.048;8.732;2022-12-07T05:44:15;101410.53;;;2.50;100.00
43745;BME280;29359;53.048;8.732;2022-12-07T05:46:16;101405.28;;;2.48;100.00
43745;BME280;29359;53.048;8.732;2022-12-07T05:48:18;101395.69;;;2.46;100.00
43745;BME280;29359;53.048;8.732;2022-12-07T05:50:19;101399.16;;;2.45;100.00
43745;BME280;29359;53.048;8.732;2022-12-07T05:52:21;101402.63;;;2.44;100.00
43745;BME280;29359;53.048;8.732;2022-12-07T05:54:24;101404.38;;;2.45;100.00
43745;BME280;29359;53.048;8.732;2022-12-07T05:56:25;101399.16;;;2.45;100.00
43745;BME280;29359;53.048;8.732;2022-12-07T05:58:27;101400.03;;;2.45;100.00
43745;BME280;29359;53.048;8.732;2022-12-07T06:00:48;101392.19;;;2.44;100.00
43745;BME280;29359;53.048;8.732;2022-12-07T06:02:57;101403.56;;;2.49;100.00
43745;BME280;29359;53.048;8.732;2022-12-07T06:04:59;101397.50;;;2.51;100.00
43745;BME280;29359;53.048;8.732;2022-12-07T06:07:00;101408.81;;;2.52;100.00
43745;BME280;29359;53.048;8.732;2022-12-07T06:09:05;101413.16;;;2.51;100.00
43745;BME280;29359;53.048;8.732;2022-12-07T06:11:06;101411.41;;;2.50;100.00
43745;BME280;29359;53.048;8.732;2022-12-07T06:13:26;101407.06;;;2.51;100.00
43745;BME280;29359;53.048;8.732;2022-12-07T06:15:28;101406.22;;;2.52;100.00
43745;BME280;29359;53.048;8.732;2022-12-07T06:17:29;101418.41;;;2.55;100.00
43745;BME280;29359;53.048;8.732;2022-12-07T06:19:32;101411.47;;;2.55;100.00
43745;BME280;29359;53.048;8.732;2022-12-07T06:21:36;101413.22;;;2.56;100.00
43745;BME280;29359;53.048;8.732;2022-12-07T06:23:37;101420.19;;;2.57;100.00
43745;BME280;29359;53.048;8.732;2022-12-07T06:25:39;101427.13;;;2.58;100.00
43745;BME280;29359;53.048;8.732;2022-12-07T06:27:40;101428.88;;;2.59;100.00
43745;BME280;29359;53.048;8.732;2022-12-07T06:29:42;101424.53;;;2.58;100.00
43745;BME280;29359;53.048;8.732;2022-12-07T06:31:43;101428.88;;;2.59;100.00
43745;BME280;29359;53.048;8.732;2022-12-07T06:33:45;101430.72;;;2.63;100.00
43745;BME280;29359;53.048;8.732;2022-12-07T06:35:46;101429.88;;;2.64;100.00
43745;BME280;29359;53.048;8.732;2022-12-07T06:37:48;101432.50;;;2.66;100.00
43745;BME280;29359;53.048;8.732;2022-12-07T06:39:49;101436.88;;;2.68;100.00
43745;BME280;29359;53.048;8.732;2022-12-07T06:41:51;101439.47;;;2.68;100.00
43745;BME280;29359;53.048;8.732;2022-12-07T06:43:53;101432.53;;;2.69;100.00
43745;BME280;29359;53.048;8.732;2022-12-07T06:45:56;101432.53;;;2.70;100.00
43745;BME280;29359;53.048;8.732;2022-12-07T06:47:58;101429.06;;;2.70;100.00
43745;BME280;29359;53.048;8.732;2022-12-07T06:50:00;101436.91;;;2.71;100.00
43745;BME280;29359;53.048;8.732;2022-12-07T06:52:02;101430.84;;;2.72;100.00
43745;BME280;29359;53.048;8.732;2022-12-07T06:54:13;101423.88;;;2.73;100.00
43745;BME280;29359;53.048;8.732;2022-12-07T06:56:15;101431.72;;;2.73;100.00
43745;BME280;29359;53.048;8.732;2022-12-07T06:58:17;101426.50;;;2.74;100.00
43745;BME280;29359;53.048;8.732;2022-12-07T07:00:19;101433.47;;;2.75;100.00
43745;BME280;29359;53.048;8.732;2022-12-07T07:02:22;101427.41;;;2.75;100.00
43745;BME280;29359;53.048;8.732;2022-12-07T07:04:24;101428.28;;;2.75;100.00
43745;BME280;29359;53.048;8.732;2022-12-07T07:06:26;101432.63;;;2.76;100.00
43745;BME280;29359;53.048;8.732;2022-12-07T07:08:27;101436.97;;;2.77;100.00
43745;BME280;29359;53.048;8.732;2022-12-07T07:10:29;101432.66;;;2.78;100.00
43745;BME280;29359;53.048;8.732;2022-12-07T07:12:30;101440.50;;;2.79;100.00
43745;BME280;29359;53.048;8.732;2022-12-07T07:14:32;101437.88;;;2.79;100.00
43745;BME280;29359;53.048;8.732;2022-12-07T07:16:34;101430.06;;;2.81;100.00
43745;BME280;29359;53.048;8.732;2022-12-07T07:18:35;101437.03;;;2.80;100.00
43745;BME280;29359;53.048;8.732;2022-12-07T07:20:37;101431.81;;;2.82;100.00
43745;BME280;29359;53.048;8.732;2022-12-07T07:22:39;101430.09;;;2.82;100.00
43745;BME280;29359;53.048;8.732;2022-12-07T07:24:40;101431.81;;;2.80;100.00
43745;BME280;29359;53.048;8.732;2022-12-07T07:26:42;101433.56;;;2.81;100.00
43745;BME280;29359;53.048;8.732;2022-12-07T07:28:43;101438.78;;;2.81;100.00
43745;BME280;29359;53.048;8.732;2022-12-07T07:30:45;101437.91;;;2.81;100.00
43745;BME280;29359;53.048;8.732;2022-12-07T07:32:46;101443.13;;;2.81;100.00
43745;BME280;29359;53.048;8.732;2022-12-07T07:34:48;101438.75;;;2.80;100.00
43745;BME280;29359;53.048;8.732;2022-12-07T07:36:49;101432.69;;;2.81;100.00
43745;BME280;29359;53.048;8.732;2022-12-07T07:38:51;101427.44;;;2.79;100.00
43745;BME280;29359;53.048;8.732;2022-12-07T07:40:52;101437.00;;;2.79;100.00
43745;BME280;29359;53.048;8.732;2022-12-07T07:42:54;101424.81;;;2.76;100.00
43745;BME280;29359;53.048;8.732;2022-12-07T07:44:55;101421.31;;;2.74;100.00
43745;BME280;29359;53.048;8.732;2022-12-07T07:46:57;101429.09;;;2.71;100.00
43745;BME280;29359;53.048;8.732;2022-12-07T07:48:58;101433.41;;;2.69;100.00
43745;BME280;29359;53.048;8.732;2022-12-07T07:51:00;101432.50;;;2.66;100.00
43745;BME280;29359;53.048;8.732;2022-12-07T07:53:01;101434.19;;;2.62;100.00
43745;BME280;29359;53.048;8.732;2022-12-07T07:55:03;101439.41;;;2.62;100.00
43745;BME280;29359;53.048;8.732;2022-12-07T07:57:05;101440.25;;;2.61;100.00
43745;BME280;29359;53.048;8.732;2022-12-07T07:59:06;101446.34;;;2.63;100.00
43745;BME280;29359;53.048;8.732;2022-12-07T08:01:08;101444.63;;;2.64;100.00
43745;BME280;29359;53.048;8.732;2022-12-07T08:03:10;101448.97;;;2.65;100.00
43745;BME280;29359;53.048;8.732;2022-12-07T08:05:12;101453.34;;;2.66;100.00
43745;BME280;29359;53.048;8.732;2022-12-07T08:07:14;101452.50;;;2.67;100.00
43745;BME280;29359;53.048;8.732;2022-12-07T08:09:16;101452.47;;;2.65;100.00
43745;BME280;29359;53.048;8.732;2022-12-07T08:11:18;101455.97;;;2.67;100.00
43745;BME280;29359;53.048;8.732;2022-12-07T08:13:19;101451.63;;;2.66;100.00
43745;BME280;29359;53.048;8.732;2022-12-07T08:15:27;101444.66;;;2.67;100.00
43745;BME280;29359;53.048;8.732;2022-12-07T08:17:29;101454.25;;;2.68;100.00
43745;BME280;29359;53.048;8.732;2022-12-07T08:19:31;101448.19;;;2.70;100.00
43745;BME280;29359;53.048;8.732;2022-12-07T08:21:32;101449.06;;;2.71;100.00
43745;BME280;29359;53.048;8.732;2022-12-07T08:23:34;101454.25;;;2.69;100.00
43745;BME280;29359;53.048;8.732;2022-12-07T08:25:40;101451.66;;;2.69;100.00
43745;BME280;29359;53.048;8.732;2022-12-07T08:27:42;101449.94;;;2.71;100.00
43745;BME280;29359;53.048;8.732;2022-12-07T08:29:43;101446.47;;;2.72;100.00
43745;BME280;29359;53.048;8.732;2022-12-07T08:31:45;101455.19;;;2.74;100.00
43745;BME280;29359;53.048;8.732;2022-12-07T08:33:47;101470.03;;;2.78;100.00
43745;BME280;29359;53.048;8.732;2022-12-07T08:35:49;101468.31;;;2.80;100.00
43745;BME280;29359;53.048;8.732;2022-12-07T08:37:50;101453.56;;;2.82;100.00
43745;BME280;29359;53.048;8.732;2022-12-07T08:39:52;101462.25;;;2.83;100.00
43745;BME280;29359;53.048;8.732;2022-12-07T08:41:53;101470.09;;;2.84;100.00
43745;BME280;29359;53.048;8.732;2022-12-07T08:43:54;101460.56;;;2.85;100.00
43745;BME280;29359;53.048;8.732;2022-12-07T08:46:26;101473.59;;;2.87;100.00
43745;BME280;29359;53.048;8.732;2022-12-07T08:48:30;101466.69;;;2.90;100.00
43745;BME280;29359;53.048;8.732;2022-12-07T08:50:33;101477.16;;;2.92;100.00
43745;BME280;29359;53.048;8.732;2022-12-07T08:52:35;101459.78;;;2.94;100.00
43745;BME280;29359;53.048;8.732;2022-12-07T08:54:38;101458.91;;;2.93;100.00
43745;BME280;29359;53.048;8.732;2022-12-07T08:56:41;101456.31;;;2.95;100.00
43745;BME280;29359;53.048;8.732;2022-12-07T08:58:43;101464.16;;;2.96;100.00
43745;BME280;29359;53.048;8.732;2022-12-07T09:00:45;101468.53;;;2.97;100.00
43745;BME280;29359;53.048;8.732;2022-12-07T09:02:46;101465.91;;;2.97;100.00
43745;BME280;29359;53.048;8.732;2022-12-07T09:04:48;101465.00;;;2.94;100.00
43745;BME280;29359;53.048;8.732;2022-12-07T09:06:50;101477.22;;;2.96;100.00
43745;BME280;29359;53.048;8.732;2022-12-07T09:08:54;101463.31;;;2.97;100.00
43745;BME280;29359;53.048;8.732;2022-12-07T09:10:57;101456.41;;;3.01;100.00
43745;BME280;29359;53.048;8.732;2022-12-07T09:12:59;101463.38;;;3.02;100.00
43745;BME280;29359;53.048;8.732;2022-12-07T09:15:03;101460.81;;;3.05;100.00
43745;BME280;29359;53.048;8.732;2022-12-07T09:17:08;101463.47;;;3.08;100.00
43745;BME280;29359;53.048;8.732;2022-12-07T09:19:10;101459.13;;;3.08;100.00
43745;BME280;29359;53.048;8.732;2022-12-07T09:21:12;101462.63;;;3.10;100.00
43745;BME280;29359;53.048;8.732;2022-12-07T09:23:13;101462.63;;;3.10;100.00
43745;BME280;29359;53.048;8.732;2022-12-07T09:25:15;101450.44;;;3.08;100.00
43745;BME280;29359;53.048;8.732;2022-12-07T09:27:17;101451.31;;;3.10;100.00
43745;BME280;29359;53.048;8.732;2022-12-07T09:29:19;101447.84;;;3.09;100.00
43745;BME280;29359;53.048;8.732;2022-12-07T09:31:21;101451.38;;;3.13;100.00
43745;BME280;29359;53.048;8.732;2022-12-07T09:33:25;101452.25;;;3.15;100.00
43745;BME280;29359;53.048;8.732;2022-12-07T09:35:27;101458.41;;;3.20;100.00
43745;BME280;29359;53.048;8.732;2022-12-07T09:37:28;101448.84;;;3.22;100.00
43745;BME280;29359;53.048;8.732;2022-12-07T09:39:30;101448.06;;;3.29;100.00
43745;BME280;29359;53.048;8.732;2022-12-07T09:41:32;101455.06;;;3.33;100.00
43745;BME280;29359;53.048;8.732;2022-12-07T09:43:35;101458.56;;;3.35;100.00
43745;BME280;29359;53.048;8.732;2022-12-07T09:45:40;101457.75;;;3.39;100.00
43745;BME280;29359;53.048;8.732;2022-12-07T09:47:48;101443.84;;;3.40;100.00
43745;BME280;29359;53.048;8.732;2022-12-07T09:49:50;101445.59;;;3.41;100.00
43745;BME280;29359;53.048;8.732;2022-12-07T09:52:49;101445.56;;;3.38;100.00
43745;BME280;29359;53.048;8.732;2022-12-07T09:54:24;101442.91;;;3.35;100.00
43745;BME280;29359;53.048;8.732;2022-12-07T09:56:29;101439.41;;;3.33;100.00
43745;BME280;29359;53.048;8.732;2022-12-07T09:58:32;101441.09;;;3.30;100.00
43745;BME280;29359;53.048;8.732;2022-12-07T10:00:34;101442.84;;;3.29;100.00
43745;BME280;29359;53.048;8.732;2022-12-07T10:02:37;101438.50;;;3.30;100.00
43745;BME280;29359;53.048;8.732;2022-12-07T10:04:39;101435.88;;;3.30;100.00
43745;BME280;29359;53.048;8.732;2022-12-07T10:06:41;101442.00;;;3.33;100.00
43745;BME280;29359;53.048;8.732;2022-12-07T10:08:43;101435.06;;;3.34;100.00
43745;BME280;29359;53.048;8.732;2022-12-07T10:10:50;101435.09;;;3.37;100.00
43745;BME280;29359;53.048;8.732;2022-12-07T10:12:56;101437.72;;;3.38;100.00
43745;BME280;29359;53.048;8.732;2022-12-07T10:15:03;101433.41;;;3.42;100.00
43745;BME280;29359;53.048;8.732;2022-12-07T10:17:29;101436.91;;;3.44;100.00
43745;BME280;29359;53.048;8.732;2022-12-07T10:19:33;101429.09;;;3.45;100.00
43745;BME280;29359;53.048;8.732;2022-12-07T10:21:35;101427.41;;;3.49;100.00
43745;BME280;29359;53.048;8.732;2022-12-07T10:23:39;101410.91;;;3.52;100.00
43745;BME280;29359;53.048;8.732;2022-12-07T10:25:41;101411.78;;;3.51;99.49
43745;BME280;29359;53.048;8.732;2022-12-07T10:27:43;101410.03;;;3.50;99.58
43745;BME280;29359;53.048;8.732;2022-12-07T10:29:58;101406.56;;;3.51;99.72
43745;BME280;29359;53.048;8.732;2022-12-07T10:32:01;101410.94;;;3.55;99.40
43745;BME280;29359;53.048;8.732;2022-12-07T10:34:03;101410.09;;;3.59;99.30
43745;BME280;29359;53.048;8.732;2022-12-07T10:36:21;101418.00;;;3.66;98.93
43745;BME280;29359;53.048;8.732;2022-12-07T10:38:24;101414.56;;;3.70;98.61
43745;BME280;29359;53.048;8.732;2022-12-07T10:42:31;101416.38;;;3.77;98.04
43745;BME280;29359;53.048;8.732;2022-12-07T10:44:33;101415.53;;;3.82;98.46
43745;BME280;29359;53.048;8.732;2022-12-07T10:46:49;101420.81;;;3.88;97.86
43745;BME280;29359;53.048;8.732;2022-12-07T10:53:57;101404.34;;;3.95;96.81
43745;BME280;29359;53.048;8.732;2022-12-07T10:56:33;101403.59;;;4.13;97.11
43745;BME280;29359;53.048;8.732;2022-12-07T11:01:44;101406.59;;;4.75;97.00
43745;BME280;29359;53.048;8.732;2022-12-07T11:04:07;101402.19;;;4.66;94.57
43745;BME280;29359;53.048;8.732;2022-12-07T11:06:16;101403.88;;;4.55;92.87
43745;BME280;29359;53.048;8.732;2022-12-07T11:13:11;101402.13;;;4.54;92.85
43745;BME280;29359;53.048;8.732;2022-12-07T11:20:27;101402.09;;;4.47;92.77
43745;BME280;29359;53.048;8.732;2022-12-07T11:22:46;101396.88;;;4.50;92.75
43745;BME280;29359;53.048;8.732;2022-12-07T11:36:52;101384.69;;;4.52;91.87
43745;BME280;29359;53.048;8.732;2022-12-07T11:38:56;101380.31;;;4.49;91.93
43745;BME280;29359;53.048;8.732;2022-12-07T11:41:02;101388.16;;;4.49;92.88
43745;BME280;29359;53.048;8.732;2022-12-07T11:45:27;101375.97;;;4.53;93.56
43745;BME280;29359;53.048;8.732;2022-12-07T11:47:45;101375.16;;;4.61;93.62
43745;BME280;29359;53.048;8.732;2022-12-07T11:49:54;101367.34;;;4.72;93.55
43745;BME280;29359;53.048;8.732;2022-12-07T11:52:00;101358.69;;;4.81;94.01